M\v Kiran Anatolia — 9HA3365 — position and weather

sailwx.info

Track history (hours):
 
Tides and Currents Weather Stations Pressure Air Temp Water Temp Dewpoint Dewpoint Depression Visibility Wind Speed Wind Dir Waves Ship Positions

M\v Kiran Anatolia

Last reported at 2018-Jan-11 22:39 UTC. Time now 2018-Jan-23 06:19 UTC.
Position N 29°21' W 094°43'.
Warning: this ship's position is 11 days out of date.

Length 198 m; draft 10.6 m.

Type: Ship. MMSI: 229478000.

Date/timePositionNaut miles runAvg speedWind from/ knotsBaromVisibWave heightAir tempDewpointWater temp
2018-Jan-11 22:39N 29°21' W 094°43'210.8
2018-Jan-11 22:30N 29°21' W 094°45'11 9.5
2018-Jan-11 21:21N 29°30' W 094°52'410.1
2018-Jan-11 21:00N 29°33' W 094°54'5 9.6
2018-Jan-11 20:30N 29°37' W 094°57'5 9.0
2018-Jan-11 20:00N 29°41' W 094°59'4 7.2
2018-Jan-11 19:30N 29°44' W 095°02'4 7.1
2018-Jan-11 19:00N 29°46' W 095°05'3 5.8
2018-Jan-11 18:28N 29°44' W 095°08'1 1.4
2018-Jan-11 17:56N 29°44' W 095°09'0 0.0
2018-Jan-11 17:29N 29°44' W 095°09'0 0.0
2018-Jan-11 16:59N 29°44' W 095°09'0 0.0
2018-Jan-11 16:26N 29°44' W 095°09'0 0.0
2018-Jan-11 15:59N 29°44' W 095°09'0 0.0
2018-Jan-11 15:29N 29°44' W 095°09'0 0.0
2018-Jan-11 14:56N 29°44' W 095°09'0 0.0
2018-Jan-11 14:26N 29°44' W 095°09'0 0.0
2018-Jan-11 13:53N 29°44' W 095°09'0 0.0
2018-Jan-11 13:29N 29°44' W 095°09'0 0.0
2018-Jan-11 12:53N 29°44' W 095°09'0 0.0
2018-Jan-11 12:29N 29°44' W 095°09'0 0.0
2018-Jan-11 11:59N 29°44' W 095°09'0 0.0
2018-Jan-11 11:29N 29°44' W 095°09'0 0.0
2018-Jan-11 10:14N 29°44' W 095°09'0 0.0
2018-Jan-11 09:59N 29°44' W 095°09'0 0.0
2018-Jan-11 09:20N 29°44' W 095°09'0 0.0
2018-Jan-11 08:59N 29°44' W 095°09'0 0.0
2018-Jan-11 08:29N 29°44' W 095°09'0 0.0
2018-Jan-11 07:59N 29°44' W 095°09'0 0.0
2018-Jan-11 07:29N 29°44' W 095°09'0 0.0
2018-Jan-11 06:59N 29°44' W 095°09'0 0.0
2018-Jan-11 06:29N 29°44' W 095°09'0 0.0
2018-Jan-11 05:56N 29°44' W 095°09'0 0.0
2018-Jan-11 05:29N 29°44' W 095°09'0 0.0
2018-Jan-11 04:59N 29°44' W 095°09'0 0.0
2018-Jan-11 04:29N 29°44' W 095°09'0 0.0
2018-Jan-11 03:59N 29°44' W 095°09'0 0.0
2018-Jan-11 03:26N 29°44' W 095°09'0 0.0
2018-Jan-11 02:59N 29°44' W 095°09'0 0.0
2018-Jan-11 01:41N 29°44' W 095°09'0 0.0
2018-Jan-11 01:26N 29°44' W 095°09'0 0.0
2018-Jan-11 00:20N 29°44' W 095°09'0 0.0
2018-Jan-10 23:59N 29°44' W 095°09'0 0.0
2018-Jan-10 22:47N 29°44' W 095°09'0 0.0
2018-Jan-10 20:38N 29°44' W 095°09'0 0.1
2018-Jan-10 20:29N 29°44' W 095°09'0 0.0
2018-Jan-10 19:50N 29°44' W 095°09'0 0.0
2018-Jan-10 19:29N 29°44' W 095°09'0 0.0
2018-Jan-10 13:35N 29°44' W 095°09'0 0.0
2018-Jan-10 13:11N 29°44' W 095°09'0 0.0
2018-Jan-10 12:59N 29°44' W 095°09'0 0.0
2018-Jan-10 12:29N 29°44' W 095°09'0 0.0
2018-Jan-10 11:59N 29°44' W 095°09'0 0.0
2018-Jan-10 06:26N 29°44' W 095°09'0 0.3
2018-Jan-10 06:00N 29°44' W 095°09'3 5.6
2018-Jan-10 05:30N 29°45' W 095°06'3 6.8
2018-Jan-10 05:00N 29°44' W 095°02'5 9.6
2018-Jan-10 04:30N 29°40' W 094°59'611.8
2018-Jan-10 04:00N 29°35' W 094°56'613.0
2018-Jan-10 03:30N 29°29' W 094°52'713.5
2018-Jan-10 03:00N 29°23' W 094°49'  
Track history (hours):
 
Tides and Currents Weather Stations Pressure Air Temp Water Temp Dewpoint Dewpoint Depression Visibility Wind Speed Wind Dir Waves Ship Positions

M\v Kiran Anatolia

Last reported at 2018-Jan-11 22:39 UTC. Time now 2018-Jan-23 06:19 UTC.
Position N 29°21' W 094°43'.
Warning: this ship's position is 11 days out of date.

Length 198 m; draft 10.6 m.

Type: Ship. MMSI: 229478000.

Date/timePositionNaut miles runAvg speedWind from/ knotsBaromVisibWave heightAir tempDewpointWater temp
2018-Jan-11 22:39N 29°21' W 094°43'210.8
2018-Jan-11 22:30N 29°21' W 094°45'11 9.5
2018-Jan-11 21:21N 29°30' W 094°52'410.1
2018-Jan-11 21:00N 29°33' W 094°54'5 9.6
2018-Jan-11 20:30N 29°37' W 094°57'5 9.0
2018-Jan-11 20:00N 29°41' W 094°59'4 7.2
2018-Jan-11 19:30N 29°44' W 095°02'4 7.1
2018-Jan-11 19:00N 29°46' W 095°05'3 5.8
2018-Jan-11 18:28N 29°44' W 095°08'1 1.4
2018-Jan-11 17:56N 29°44' W 095°09'0 0.0
2018-Jan-11 17:29N 29°44' W 095°09'0 0.0
2018-Jan-11 16:59N 29°44' W 095°09'0 0.0
2018-Jan-11 16:26N 29°44' W 095°09'0 0.0
2018-Jan-11 15:59N 29°44' W 095°09'0 0.0
2018-Jan-11 15:29N 29°44' W 095°09'0 0.0
2018-Jan-11 14:56N 29°44' W 095°09'0 0.0
2018-Jan-11 14:26N 29°44' W 095°09'0 0.0
2018-Jan-11 13:53N 29°44' W 095°09'0 0.0
2018-Jan-11 13:29N 29°44' W 095°09'0 0.0
2018-Jan-11 12:53N 29°44' W 095°09'0 0.0
2018-Jan-11 12:29N 29°44' W 095°09'0 0.0
2018-Jan-11 11:59N 29°44' W 095°09'0 0.0
2018-Jan-11 11:29N 29°44' W 095°09'0 0.0
2018-Jan-11 10:14N 29°44' W 095°09'0 0.0
2018-Jan-11 09:59N 29°44' W 095°09'0 0.0
2018-Jan-11 09:20N 29°44' W 095°09'0 0.0
2018-Jan-11 08:59N 29°44' W 095°09'0 0.0
2018-Jan-11 08:29N 29°44' W 095°09'0 0.0
2018-Jan-11 07:59N 29°44' W 095°09'0 0.0
2018-Jan-11 07:29N 29°44' W 095°09'0 0.0
2018-Jan-11 06:59N 29°44' W 095°09'0 0.0
2018-Jan-11 06:29N 29°44' W 095°09'0 0.0
2018-Jan-11 05:56N 29°44' W 095°09'0 0.0
2018-Jan-11 05:29N 29°44' W 095°09'0 0.0
2018-Jan-11 04:59N 29°44' W 095°09'0 0.0
2018-Jan-11 04:29N 29°44' W 095°09'0 0.0
2018-Jan-11 03:59N 29°44' W 095°09'0 0.0
2018-Jan-11 03:26N 29°44' W 095°09'0 0.0
2018-Jan-11 02:59N 29°44' W 095°09'0 0.0
2018-Jan-11 01:41N 29°44' W 095°09'0 0.0
2018-Jan-11 01:26N 29°44' W 095°09'0 0.0
2018-Jan-11 00:20N 29°44' W 095°09'0 0.0
2018-Jan-10 23:59N 29°44' W 095°09'0 0.0
2018-Jan-10 22:47N 29°44' W 095°09'0 0.0
2018-Jan-10 20:38N 29°44' W 095°09'0 0.1
2018-Jan-10 20:29N 29°44' W 095°09'0 0.0
2018-Jan-10 19:50N 29°44' W 095°09'0 0.0
2018-Jan-10 19:29N 29°44' W 095°09'0 0.0
2018-Jan-10 13:35N 29°44' W 095°09'0 0.0
2018-Jan-10 13:11N 29°44' W 095°09'0 0.0
2018-Jan-10 12:59N 29°44' W 095°09'0 0.0
2018-Jan-10 12:29N 29°44' W 095°09'0 0.0
2018-Jan-10 11:59N 29°44' W 095°09'0 0.0
2018-Jan-10 06:26N 29°44' W 095°09'0 0.3
2018-Jan-10 06:00N 29°44' W 095°09'3 5.6
2018-Jan-10 05:30N 29°45' W 095°06'3 6.8
2018-Jan-10 05:00N 29°44' W 095°02'5 9.6
2018-Jan-10 04:30N 29°40' W 094°59'611.8
2018-Jan-10 04:00N 29°35' W 094°56'613.0
2018-Jan-10 03:30N 29°29' W 094°52'713.5
2018-Jan-10 03:00N 29°23' W 094°49'  

Dump ship's entire track history